Observation data for Tatum on 08/20/2019      Previous  Date  Next       Current Mesonet Observations  Soil Data  Daily Summary Page  Observations in Plain Language
KTAT 200500Z 12007KT 27/09 A3012 RMK A01 T02720094  RH  034%=      5-min Rain = 0
KTAT 200505Z 13007KT 27/09 A3012 RMK A01 T02710094  RH  034%=      5-min Rain = 0
KTAT 200510Z 13007KT 27/10 A3012 RMK A01 T02710095  RH  034%=      5-min Rain = 0
KTAT 200515Z 13007KT 27/10 A3012 RMK A01 T02700096  RH  034%=      5-min Rain = 0
KTAT 200520Z 14007KT 27/10 A3012 RMK A01 T02690096  RH  035%=      5-min Rain = 0
KTAT 200525Z 14007KT 27/10 A3012 RMK A01 T02690097  RH  035%=      5-min Rain = 0
KTAT 200530Z 14007KT 27/10 A3012 RMK A01 T02690098  RH  035%=      5-min Rain = 0
KTAT 200535Z 15008KT 27/10 A3012 RMK A01 T02690098  RH  035%=      5-min Rain = 0
KTAT 200540Z 15007KT 27/10 A3011 RMK A01 T02690098  RH  035%=      5-min Rain = 0
KTAT 200545Z 15007KT 27/10 A3011 RMK A01 T02680098  RH  035%=      5-min Rain = 0
KTAT 200550Z 16007KT 27/10 A3012 RMK A01 T02670098  RH  036%=      5-min Rain = 0
KTAT 200555Z 16007KT 27/10 A3012 RMK A01 T02650099  RH  036%=      5-min Rain = 0
KTAT 200600Z 17007KT 26/10 A3012 RMK A01 T02630099  RH  037%=      5-min Rain = 0
KTAT 200605Z 16008KT 26/10 A3012 RMK A01 T02630099  RH  037%=      5-min Rain = 0
KTAT 200610Z 16009KT 27/10 A3012 RMK A01 T02660098  RH  036%=      5-min Rain = 0
KTAT 200615Z 16011KT 27/10 A3012 RMK A01 T02710098  RH  035%=      5-min Rain = 0
KTAT 200620Z 16012KT 27/10 A3012 RMK A01 T02740098  RH  034%=      5-min Rain = 0
KTAT 200625Z 16011KT 27/10 A3012 RMK A01 T02740098  RH  034%=      5-min Rain = 0
KTAT 200630Z 17011KT 27/10 A3012 RMK A01 T02740098  RH  034%=      5-min Rain = 0
KTAT 200635Z 17011KT 27/10 A3012 RMK A01 T02730099  RH  035%=      5-min Rain = 0
KTAT 200640Z 17010KT 27/10 A3012 RMK A01 T02730099  RH  035%=      5-min Rain = 0
KTAT 200645Z 17010KT 27/10 A3012 RMK A01 T02720100  RH  035%=      5-min Rain = 0
KTAT 200650Z 16010KT 27/10 A3012 RMK A01 T02710100  RH  035%=      5-min Rain = 0
KTAT 200655Z 16011KT 27/10 A3012 RMK A01 T02700101  RH  036%=      5-min Rain = 0
KTAT 200700Z 16011KT 27/10 A3012 RMK A01 T02700101  RH  036%=      5-min Rain = 0
KTAT 200705Z 16011KT 27/10 A3012 RMK A01 T02700101  RH  036%=      5-min Rain = 0
KTAT 200710Z 17012KT 27/10 A3012 RMK A01 T02690100  RH  036%=      5-min Rain = 0
KTAT 200715Z 17013KT 27/10 A3012 RMK A01 T02700099  RH  035%=      5-min Rain = 0
KTAT 200720Z 17013KT 27/10 A3012 RMK A01 T02690098  RH  035%=      5-min Rain = 0
KTAT 200725Z 17012KT 27/10 A3012 RMK A01 T02690097  RH  035%=      5-min Rain = 0
KTAT 200730Z 17013KT 27/10 A3012 RMK A01 T02690096  RH  035%=      5-min Rain = 0
KTAT 200735Z 17012KT 27/10 A3012 RMK A01 T02680095  RH  035%=      5-min Rain = 0
KTAT 200740Z 17012KT 27/09 A3012 RMK A01 T02670094  RH  035%=      5-min Rain = 0
KTAT 200745Z 17012KT 27/09 A3012 RMK A01 T02670092  RH  034%=      5-min Rain = 0
KTAT 200750Z 17009KT 27/09 A3012 RMK A01 T02650092  RH  035%=      5-min Rain = 0
KTAT 200755Z 18008KT 26/09 A3013 RMK A01 T02620093  RH  035%=      5-min Rain = 0
KTAT 200800Z 18009KT 26/09 A3013 RMK A01 T02610093  RH  036%=      5-min Rain = 0
KTAT 200805Z 18009KT 26/09 A3013 RMK A01 T02610093  RH  036%=      5-min Rain = 0
KTAT 200810Z 19008KT 26/09 A3013 RMK A01 T02600093  RH  036%=      5-min Rain = 0
KTAT 200815Z 19008KT 26/09 A3013 RMK A01 T02580094  RH  037%=      5-min Rain = 0
KTAT 200820Z 18009KT 26/10 A3013 RMK A01 T02570095  RH  037%=      5-min Rain = 0
KTAT 200825Z 18010KT 26/10 A3013 RMK A01 T02580096  RH  037%=      5-min Rain = 0
KTAT 200830Z 19010KT 26/10 A3013 RMK A01 T02580098  RH  038%=      5-min Rain = 0
KTAT 200835Z 19010KT 26/10 A3013 RMK A01 T02580100  RH  038%=      5-min Rain = 0
KTAT 200840Z 19011KT 26/10 A3013 RMK A01 T02580102  RH  039%=      5-min Rain = 0
KTAT 200845Z 19010KT 26/10 A3013 RMK A01 T02580104  RH  039%=      5-min Rain = 0
KTAT 200850Z 19010KT 26/11 A3013 RMK A01 T02580106  RH  040%=      5-min Rain = 0
KTAT 200855Z 19010KT 26/11 A3013 RMK A01 T02580109  RH  041%=      5-min Rain = 0
KTAT 200900Z 19010KT 26/11 A3013 RMK A01 T02570111  RH  042%=      5-min Rain = 0
KTAT 200905Z 19010KT 26/11 A3013 RMK A01 T02570113  RH  042%=      5-min Rain = 0
KTAT 200910Z 19009KT 26/12 A3013 RMK A01 T02560115  RH  043%=      5-min Rain = 0
KTAT 200915Z 19009KT 26/12 A3013 RMK A01 T02550115  RH  043%=      5-min Rain = 0
KTAT 200920Z 19008KT 25/12 A3013 RMK A01 T02540116  RH  044%=      5-min Rain = 0
KTAT 200925Z 19007KT 25/12 A3013 RMK A01 T02530117  RH  044%=      5-min Rain = 0
KTAT 200930Z 19008KT 25/12 A3013 RMK A01 T02520117  RH  044%=      5-min Rain = 0
KTAT 200935Z 20006KT 25/12 A3014 RMK A01 T02520117  RH  045%=      5-min Rain = 0
KTAT 200940Z 21005KT 25/12 A3014 RMK A01 T02510118  RH  045%=      5-min Rain = 0
KTAT 200945Z 22004KT 25/12 A3014 RMK A01 T02490118  RH  046%=      5-min Rain = 0
KTAT 200950Z 24004KT 25/12 A3014 RMK A01 T02490118  RH  046%=      5-min Rain = 0
KTAT 200955Z 27004KT 25/12 A3014 RMK A01 T02470117  RH  046%=      5-min Rain = 0
KTAT 201000Z 27004KT 25/12 A3014 RMK A01 T02460117  RH  046%=      5-min Rain = 0
KTAT 201005Z 26004KT 25/12 A3014 RMK A01 T02450117  RH  046%=      5-min Rain = 0
KTAT 201010Z 24003KT 24/12 A3014 RMK A01 T02440118  RH  047%=      5-min Rain = 0
KTAT 201015Z 20003KT 24/12 A3014 RMK A01 T02430119  RH  047%=      5-min Rain = 0
KTAT 201020Z 18005KT 24/12 A3014 RMK A01 T02420120  RH  048%=      5-min Rain = 0
KTAT 201025Z 18006KT 24/12 A3014 RMK A01 T02420124  RH  050%=      5-min Rain = 0
KTAT 201030Z 18007KT 24/13 A3014 RMK A01 T02440127  RH  050%=      5-min Rain = 0
KTAT 201035Z 18007KT 25/13 A3014 RMK A01 T02450128  RH  050%=      5-min Rain = 0
KTAT 201040Z 18007KT 24/13 A3014 RMK A01 T02440129  RH  050%=      5-min Rain = 0
KTAT 201045Z 18007KT 24/13 A3014 RMK A01 T02430129  RH  051%=      5-min Rain = 0
KTAT 201050Z 18006KT 24/13 A3014 RMK A01 T02430130  RH  051%=      5-min Rain = 0
KTAT 201055Z 18006KT 24/13 A3014 RMK A01 T02420130  RH  052%=      5-min Rain = 0
KTAT 201100Z 18005KT 24/13 A3014 RMK A01 T02410130  RH  052%=      5-min Rain = 0
KTAT 201105Z 18005KT 24/13 A3014 RMK A01 T02410130  RH  052%=      5-min Rain = 0
KTAT 201110Z 18005KT 24/13 A3014 RMK A01 T02410130  RH  052%=      5-min Rain = 0
KTAT 201115Z 18005KT 24/13 A3014 RMK A01 T02400130  RH  052%=      5-min Rain = 0
KTAT 201120Z 18006KT 24/13 A3014 RMK A01 T02390130  RH  052%=      5-min Rain = 0
KTAT 201125Z 17006KT 24/13 A3014 RMK A01 T02390130  RH  053%=      5-min Rain = 0
KTAT 201130Z 17006KT 24/13 A3014 RMK A01 T02380131  RH  053%=      5-min Rain = 0
KTAT 201135Z 18007KT 24/13 A3014 RMK A01 T02380131  RH  053%=      5-min Rain = 0
KTAT 201140Z 18008KT 24/13 A3015 RMK A01 T02380131  RH  053%=      5-min Rain = 0
KTAT 201145Z 18008KT 24/13 A3015 RMK A01 T02400131  RH  053%=      5-min Rain = 0
KTAT 201150Z 18008KT 24/13 A3015 RMK A01 T02400131  RH  052%=      5-min Rain = 0
KTAT 201155Z 18008KT 24/13 A3015 RMK A01 T02400131  RH  053%=      5-min Rain = 0
KTAT 201200Z 17007KT 24/13 A3015 RMK A01 T02390131  RH  053%=      5-min Rain = 0
KTAT 201205Z 17007KT 24/13 A3015 RMK A01 T02370131  RH  054%=      5-min Rain = 0
KTAT 201210Z 17007KT 24/13 A3015 RMK A01 T02350131  RH  054%=      5-min Rain = 0
KTAT 201215Z 17007KT 23/13 A3015 RMK A01 T02340132  RH  055%=      5-min Rain = 0
KTAT 201220Z 17007KT 23/13 A3015 RMK A01 T02340132  RH  055%=      5-min Rain = 0
KTAT 201225Z 16006KT 23/13 A3016 RMK A01 T02330132  RH  055%=      5-min Rain = 0
KTAT 201230Z 16006KT 23/13 A3016 RMK A01 T02320132  RH  056%=      5-min Rain = 0
KTAT 201235Z 16007KT 23/13 A3016 RMK A01 T02320132  RH  055%=      5-min Rain = 0
KTAT 201240Z 16007KT 23/13 A3016 RMK A01 T02330132  RH  055%=      5-min Rain = 0
KTAT 201245Z 16008KT 23/13 A3016 RMK A01 T02320133  RH  056%=      5-min Rain = 0
KTAT 201250Z 16009KT 23/13 A3016 RMK A01 T02340133  RH  055%=      5-min Rain = 0
KTAT 201255Z 17010KT 24/13 A3016 RMK A01 T02360133  RH  055%=      5-min Rain = 0
KTAT 201300Z 16010KT 24/13 A3016 RMK A01 T02380134  RH  054%=      5-min Rain = 0
KTAT 201305Z 16010KT 24/13 A3016 RMK A01 T02390133  RH  054%=      5-min Rain = 0
KTAT 201310Z 16012KT 24/13 A3016 RMK A01 T02390134  RH  054%=      5-min Rain = 0
KTAT 201315Z 16012KT 24/14 A3016 RMK A01 T02400135  RH  054%=      5-min Rain = 0
KTAT 201320Z 16012KT 24/14 A3016 RMK A01 T02410136  RH  054%=      5-min Rain = 0
KTAT 201325Z 17012KT 24/14 A3017 RMK A01 T02420137  RH  054%=      5-min Rain = 0
KTAT 201330Z 17012KT 24/14 A3017 RMK A01 T02430138  RH  054%=      5-min Rain = 0
KTAT 201335Z 17012KT 24/14 A3017 RMK A01 T02430138  RH  054%=      5-min Rain = 0
KTAT 201340Z 17013KT 24/14 A3017 RMK A01 T02440139  RH  054%=      5-min Rain = 0
KTAT 201345Z 17011KT 25/14 A3017 RMK A01 T02460139  RH  054%=      5-min Rain = 0
KTAT 201350Z 17013KT 25/14 A3017 RMK A01 T02470140  RH  054%=      5-min Rain = 0
KTAT 201355Z 17013KT 25/14 A3017 RMK A01 T02480141  RH  054%=      5-min Rain = 0
KTAT 201400Z 17011G16KT 25/14 A3018 RMK A01 T02500141  RH  053%=      5-min Rain = 0
KTAT 201405Z 17012KT 25/14 A3018 RMK A01 T02510141  RH  053%=      5-min Rain = 0
KTAT 201410Z 18011KT 25/14 A3018 RMK A01 T02530142  RH  052%=      5-min Rain = 0

Page generated in 0.0055 seconds.